sensor_id;sensor_type;location;lat;lon;timestamp;temperature;humidity
71837;DHT22;59686;51.716;7.016;2022-12-10T00:01:18;6.80;78.40
71837;DHT22;59686;51.716;7.016;2022-12-10T00:03:45;6.80;78.40
71837;DHT22;59686;51.716;7.016;2022-12-10T00:06:17;6.80;78.50
71837;DHT22;59686;51.716;7.016;2022-12-10T00:08:44;6.80;78.50
71837;DHT22;59686;51.716;7.016;2022-12-10T00:11:11;6.80;78.50
71837;DHT22;59686;51.716;7.016;2022-12-10T00:13:37;6.80;78.50
71837;DHT22;59686;51.716;7.016;2022-12-10T00:16:05;6.80;78.40
71837;DHT22;59686;51.716;7.016;2022-12-10T00:18:31;6.80;78.40
71837;DHT22;59686;51.716;7.016;2022-12-10T00:20:57;6.80;78.40
71837;DHT22;59686;51.716;7.016;2022-12-10T00:23:23;6.80;78.40
71837;DHT22;59686;51.716;7.016;2022-12-10T00:25:49;6.80;78.40
71837;DHT22;59686;51.716;7.016;2022-12-10T00:28:14;6.80;78.40
71837;DHT22;59686;51.716;7.016;2022-12-10T00:30:40;6.70;78.50
71837;DHT22;59686;51.716;7.016;2022-12-10T00:33:06;6.70;78.40
71837;DHT22;59686;51.716;7.016;2022-12-10T00:35:35;6.80;78.50
71837;DHT22;59686;51.716;7.016;2022-12-10T00:38:01;6.80;78.50
71837;DHT22;59686;51.716;7.016;2022-12-10T00:40:26;6.80;78.40
71837;DHT22;59686;51.716;7.016;2022-12-10T00:42:52;6.90;78.50
71837;DHT22;59686;51.716;7.016;2022-12-10T00:45:18;6.80;78.40
71837;DHT22;59686;51.716;7.016;2022-12-10T00:47:44;6.80;78.40
71837;DHT22;59686;51.716;7.016;2022-12-10T00:50:22;6.80;78.40
71837;DHT22;59686;51.716;7.016;2022-12-10T00:52:47;6.70;78.40
71837;DHT22;59686;51.716;7.016;2022-12-10T00:55:13;6.80;78.40
71837;DHT22;59686;51.716;7.016;2022-12-10T00:57:39;6.80;78.40
71837;DHT22;59686;51.716;7.016;2022-12-10T01:00:05;6.80;78.40
71837;DHT22;59686;51.716;7.016;2022-12-10T01:02:31;6.80;78.40
71837;DHT22;59686;51.716;7.016;2022-12-10T01:04:56;6.80;78.50
71837;DHT22;59686;51.716;7.016;2022-12-10T01:07:22;6.80;78.40
71837;DHT22;59686;51.716;7.016;2022-12-10T01:09:48;6.70;78.30
71837;DHT22;59686;51.716;7.016;2022-12-10T01:12:13;6.80;78.30
71837;DHT22;59686;51.716;7.016;2022-12-10T01:14:39;6.70;78.20
71837;DHT22;59686;51.716;7.016;2022-12-10T01:17:05;6.70;78.30
71837;DHT22;59686;51.716;7.016;2022-12-10T01:19:32;6.70;78.30
71837;DHT22;59686;51.716;7.016;2022-12-10T01:21:58;6.70;79.10
71837;DHT22;59686;51.716;7.016;2022-12-10T01:24:26;6.70;78.30
71837;DHT22;59686;51.716;7.016;2022-12-10T01:26:52;6.80;78.40
71837;DHT22;59686;51.716;7.016;2022-12-10T01:29:18;6.90;78.30
71837;DHT22;59686;51.716;7.016;2022-12-10T01:31:44;6.70;78.30
71837;DHT22;59686;51.716;7.016;2022-12-10T01:34:12;6.70;78.30
71837;DHT22;59686;51.716;7.016;2022-12-10T01:36:42;6.70;78.20
71837;DHT22;59686;51.716;7.016;2022-12-10T01:39:15;6.70;78.30
71837;DHT22;59686;51.716;7.016;2022-12-10T01:41:45;6.70;78.20
71837;DHT22;59686;51.716;7.016;2022-12-10T01:46:42;6.80;78.40
71837;DHT22;59686;51.716;7.016;2022-12-10T01:49:12;6.70;78.40
71837;DHT22;59686;51.716;7.016;2022-12-10T01:51:51;6.70;78.30
71837;DHT22;59686;51.716;7.016;2022-12-10T01:54:24;6.70;78.30
71837;DHT22;59686;51.716;7.016;2022-12-10T01:56:58;6.70;78.30
71837;DHT22;59686;51.716;7.016;2022-12-10T01:59:24;6.70;78.40
71837;DHT22;59686;51.716;7.016;2022-12-10T02:02:17;6.70;78.30
71837;DHT22;59686;51.716;7.016;2022-12-10T02:13:21;6.70;78.20
71837;DHT22;59686;51.716;7.016;2022-12-10T02:16:08;6.70;78.20
71837;DHT22;59686;51.716;7.016;2022-12-10T02:18:41;6.70;78.20
71837;DHT22;59686;51.716;7.016;2022-12-10T02:21:15;6.60;78.20
71837;DHT22;59686;51.716;7.016;2022-12-10T02:23:56;6.60;78.20
71837;DHT22;59686;51.716;7.016;2022-12-10T02:29:17;6.70;78.20
71837;DHT22;59686;51.716;7.016;2022-12-10T02:31:52;6.60;78.10
71837;DHT22;59686;51.716;7.016;2022-12-10T02:34:19;6.70;78.10
71837;DHT22;59686;51.716;7.016;2022-12-10T02:36:48;6.60;78.00
71837;DHT22;59686;51.716;7.016;2022-12-10T02:39:38;6.60;78.00
71837;DHT22;59686;51.716;7.016;2022-12-10T02:42:06;6.60;78.00
71837;DHT22;59686;51.716;7.016;2022-12-10T02:44:34;6.60;78.00
71837;DHT22;59686;51.716;7.016;2022-12-10T02:47:01;6.60;78.20
71837;DHT22;59686;51.716;7.016;2022-12-10T02:49:29;6.60;78.20
71837;DHT22;59686;51.716;7.016;2022-12-10T02:51:55;6.60;78.00
71837;DHT22;59686;51.716;7.016;2022-12-10T02:54:46;6.50;78.00
71837;DHT22;59686;51.716;7.016;2022-12-10T02:57:15;6.60;78.00
71837;DHT22;59686;51.716;7.016;2022-12-10T03:00:06;6.60;78.10
71837;DHT22;59686;51.716;7.016;2022-12-10T03:02:40;6.60;78.00
71837;DHT22;59686;51.716;7.016;2022-12-10T03:05:20;6.60;78.00
71837;DHT22;59686;51.716;7.016;2022-12-10T03:13:06;6.60;78.00
71837;DHT22;59686;51.716;7.016;2022-12-10T03:15:34;6.50;77.90
71837;DHT22;59686;51.716;7.016;2022-12-10T03:18:05;6.60;78.00
71837;DHT22;59686;51.716;7.016;2022-12-10T03:20:34;6.60;78.00
71837;DHT22;59686;51.716;7.016;2022-12-10T03:23:02;6.60;78.00
71837;DHT22;59686;51.716;7.016;2022-12-10T03:25:30;6.60;77.90
71837;DHT22;59686;51.716;7.016;2022-12-10T03:27:59;6.50;77.90
71837;DHT22;59686;51.716;7.016;2022-12-10T03:30:26;6.50;77.90
71837;DHT22;59686;51.716;7.016;2022-12-10T03:32:52;6.50;77.90
71837;DHT22;59686;51.716;7.016;2022-12-10T03:35:20;6.50;77.80
71837;DHT22;59686;51.716;7.016;2022-12-10T03:37:47;6.50;77.80
71837;DHT22;59686;51.716;7.016;2022-12-10T03:40:17;6.50;77.80
71837;DHT22;59686;51.716;7.016;2022-12-10T03:42:44;6.50;77.80
71837;DHT22;59686;51.716;7.016;2022-12-10T03:45:09;6.60;77.70
71837;DHT22;59686;51.716;7.016;2022-12-10T03:47:37;6.50;77.70
71837;DHT22;59686;51.716;7.016;2022-12-10T03:50:05;6.60;77.80
71837;DHT22;59686;51.716;7.016;2022-12-10T03:53:05;6.50;77.70
71837;DHT22;59686;51.716;7.016;2022-12-10T03:55:31;6.50;77.60
71837;DHT22;59686;51.716;7.016;2022-12-10T03:57:58;6.50;77.60
71837;DHT22;59686;51.716;7.016;2022-12-10T04:00:24;6.50;77.50
71837;DHT22;59686;51.716;7.016;2022-12-10T04:02:50;6.50;77.50
71837;DHT22;59686;51.716;7.016;2022-12-10T04:05:15;6.50;77.60
71837;DHT22;59686;51.716;7.016;2022-12-10T04:07:41;6.50;77.50
71837;DHT22;59686;51.716;7.016;2022-12-10T04:10:09;6.60;77.50
71837;DHT22;59686;51.716;7.016;2022-12-10T04:12:35;6.40;77.30
71837;DHT22;59686;51.716;7.016;2022-12-10T04:15:00;6.40;77.40
71837;DHT22;59686;51.716;7.016;2022-12-10T04:17:44;6.40;77.40
71837;DHT22;59686;51.716;7.016;2022-12-10T04:20:10;6.50;77.50
71837;DHT22;59686;51.716;7.016;2022-12-10T04:22:56;6.50;77.40
71837;DHT22;59686;51.716;7.016;2022-12-10T04:25:40;6.40;77.30
71837;DHT22;59686;51.716;7.016;2022-12-10T04:28:24;6.40;77.30
71837;DHT22;59686;51.716;7.016;2022-12-10T04:31:04;6.40;77.30
71837;DHT22;59686;51.716;7.016;2022-12-10T04:33:30;6.40;77.30
71837;DHT22;59686;51.716;7.016;2022-12-10T04:35:55;6.40;77.30
71837;DHT22;59686;51.716;7.016;2022-12-10T04:38:21;6.50;77.30
71837;DHT22;59686;51.716;7.016;2022-12-10T04:40:47;6.40;77.20
71837;DHT22;59686;51.716;7.016;2022-12-10T04:43:12;6.40;77.20
71837;DHT22;59686;51.716;7.016;2022-12-10T04:45:38;6.40;77.10
71837;DHT22;59686;51.716;7.016;2022-12-10T04:48:04;6.40;77.00
71837;DHT22;59686;51.716;7.016;2022-12-10T04:50:29;6.40;77.10
71837;DHT22;59686;51.716;7.016;2022-12-10T04:52:55;6.40;77.00
71837;DHT22;59686;51.716;7.016;2022-12-10T04:55:21;6.40;77.00
71837;DHT22;59686;51.716;7.016;2022-12-10T04:57:46;6.30;76.90
71837;DHT22;59686;51.716;7.016;2022-12-10T05:00:12;6.30;76.90
71837;DHT22;59686;51.716;7.016;2022-12-10T05:02:38;6.30;76.90
71837;DHT22;59686;51.716;7.016;2022-12-10T05:05:04;6.40;77.00
71837;DHT22;59686;51.716;7.016;2022-12-10T05:07:33;6.40;76.90
71837;DHT22;59686;51.716;7.016;2022-12-10T05:09:58;6.30;76.70
71837;DHT22;59686;51.716;7.016;2022-12-10T05:12:24;6.30;76.70
71837;DHT22;59686;51.716;7.016;2022-12-10T05:14:50;6.30;76.70
71837;DHT22;59686;51.716;7.016;2022-12-10T05:17:15;6.30;76.70
71837;DHT22;59686;51.716;7.016;2022-12-10T05:19:41;6.30;76.70
71837;DHT22;59686;51.716;7.016;2022-12-10T05:22:07;6.30;76.60
71837;DHT22;59686;51.716;7.016;2022-12-10T05:24:52;6.30;76.60
71837;DHT22;59686;51.716;7.016;2022-12-10T05:27:18;6.30;76.50
71837;DHT22;59686;51.716;7.016;2022-12-10T05:29:43;6.30;76.40
71837;DHT22;59686;51.716;7.016;2022-12-10T05:32:09;6.30;77.30
71837;DHT22;59686;51.716;7.016;2022-12-10T05:34:35;6.30;76.40
71837;DHT22;59686;51.716;7.016;2022-12-10T05:37:00;6.30;76.60
71837;DHT22;59686;51.716;7.016;2022-12-10T05:39:26;6.20;76.50
71837;DHT22;59686;51.716;7.016;2022-12-10T05:41:52;6.20;76.50
71837;DHT22;59686;51.716;7.016;2022-12-10T05:44:17;6.20;76.50
71837;DHT22;59686;51.716;7.016;2022-12-10T05:46:49;6.30;76.50
71837;DHT22;59686;51.716;7.016;2022-12-10T05:49:15;6.20;76.40
71837;DHT22;59686;51.716;7.016;2022-12-10T05:51:40;6.20;76.40
71837;DHT22;59686;51.716;7.016;2022-12-10T05:54:07;6.20;76.40
71837;DHT22;59686;51.716;7.016;2022-12-10T05:56:35;6.20;76.30
71837;DHT22;59686;51.716;7.016;2022-12-10T05:59:02;6.20;76.40
71837;DHT22;59686;51.716;7.016;2022-12-10T06:01:32;6.30;76.40
71837;DHT22;59686;51.716;7.016;2022-12-10T06:04:00;6.20;76.30
71837;DHT22;59686;51.716;7.016;2022-12-10T06:06:28;6.20;76.30
71837;DHT22;59686;51.716;7.016;2022-12-10T06:08:56;6.20;76.30
71837;DHT22;59686;51.716;7.016;2022-12-10T06:11:22;6.20;76.20
71837;DHT22;59686;51.716;7.016;2022-12-10T06:13:48;6.20;76.20
71837;DHT22;59686;51.716;7.016;2022-12-10T06:16:14;6.20;76.10
71837;DHT22;59686;51.716;7.016;2022-12-10T06:18:41;6.20;76.10
71837;DHT22;59686;51.716;7.016;2022-12-10T06:21:20;6.20;76.20
71837;DHT22;59686;51.716;7.016;2022-12-10T06:23:46;6.20;76.10
71837;DHT22;59686;51.716;7.016;2022-12-10T06:26:15;6.20;76.00
71837;DHT22;59686;51.716;7.016;2022-12-10T06:28:43;6.20;76.10
71837;DHT22;59686;51.716;7.016;2022-12-10T06:31:09;6.10;76.00
71837;DHT22;59686;51.716;7.016;2022-12-10T06:33:35;6.10;76.00
71837;DHT22;59686;51.716;7.016;2022-12-10T06:36:06;6.10;76.00
71837;DHT22;59686;51.716;7.016;2022-12-10T06:38:38;6.10;76.00
71837;DHT22;59686;51.716;7.016;2022-12-10T06:41:05;6.10;76.00
71837;DHT22;59686;51.716;7.016;2022-12-10T06:43:31;6.10;75.90
71837;DHT22;59686;51.716;7.016;2022-12-10T06:45:57;6.10;75.90
71837;DHT22;59686;51.716;7.016;2022-12-10T06:48:23;6.10;75.90
71837;DHT22;59686;51.716;7.016;2022-12-10T06:50:48;6.10;75.80
71837;DHT22;59686;51.716;7.016;2022-12-10T06:53:14;6.10;75.80
71837;DHT22;59686;51.716;7.016;2022-12-10T06:55:40;6.00;75.70
71837;DHT22;59686;51.716;7.016;2022-12-10T06:58:05;6.10;75.80
71837;DHT22;59686;51.716;7.016;2022-12-10T07:00:35;6.20;75.80
71837;DHT22;59686;51.716;7.016;2022-12-10T07:03:01;6.00;75.70
71837;DHT22;59686;51.716;7.016;2022-12-10T07:05:26;6.10;75.70
71837;DHT22;59686;51.716;7.016;2022-12-10T07:07:52;6.10;75.70
71837;DHT22;59686;51.716;7.016;2022-12-10T07:10:18;6.10;75.60
71837;DHT22;59686;51.716;7.016;2022-12-10T07:12:43;6.10;76.20
71837;DHT22;59686;51.716;7.016;2022-12-10T07:15:09;6.10;75.40
71837;DHT22;59686;51.716;7.016;2022-12-10T07:17:36;6.10;75.40
71837;DHT22;59686;51.716;7.016;2022-12-10T07:20:02;6.10;75.40
71837;DHT22;59686;51.716;7.016;2022-12-10T07:22:28;6.00;75.30
71837;DHT22;59686;51.716;7.016;2022-12-10T07:24:53;6.10;75.40
71837;DHT22;59686;51.716;7.016;2022-12-10T07:27:19;6.10;75.50
71837;DHT22;59686;51.716;7.016;2022-12-10T07:29:45;6.00;75.50
71837;DHT22;59686;51.716;7.016;2022-12-10T07:32:11;6.10;75.60
71837;DHT22;59686;51.716;7.016;2022-12-10T07:34:49;6.10;75.60
71837;DHT22;59686;51.716;7.016;2022-12-10T07:37:15;6.10;75.80
71837;DHT22;59686;51.716;7.016;2022-12-10T07:39:41;6.00;75.60
71837;DHT22;59686;51.716;7.016;2022-12-10T07:42:08;6.10;75.80
71837;DHT22;59686;51.716;7.016;2022-12-10T07:44:33;6.10;75.80
71837;DHT22;59686;51.716;7.016;2022-12-10T07:46:59;6.10;75.80
71837;DHT22;59686;51.716;7.016;2022-12-10T07:49:25;6.00;75.70
71837;DHT22;59686;51.716;7.016;2022-12-10T07:51:51;6.10;75.80
71837;DHT22;59686;51.716;7.016;2022-12-10T07:54:17;6.10;75.80
71837;DHT22;59686;51.716;7.016;2022-12-10T07:56:43;6.00;75.80
71837;DHT22;59686;51.716;7.016;2022-12-10T07:59:09;6.10;75.90
71837;DHT22;59686;51.716;7.016;2022-12-10T08:01:35;6.10;75.90
71837;DHT22;59686;51.716;7.016;2022-12-10T08:04:00;6.00;75.80
71837;DHT22;59686;51.716;7.016;2022-12-10T08:06:27;6.10;76.00
71837;DHT22;59686;51.716;7.016;2022-12-10T08:08:54;6.00;76.00
71837;DHT22;59686;51.716;7.016;2022-12-10T08:11:23;6.00;76.00
71837;DHT22;59686;51.716;7.016;2022-12-10T08:13:49;6.00;75.90
71837;DHT22;59686;51.716;7.016;2022-12-10T08:16:17;6.10;76.00
71837;DHT22;59686;51.716;7.016;2022-12-10T08:18:44;6.20;76.00
71837;DHT22;59686;51.716;7.016;2022-12-10T08:21:14;6.00;76.00
71837;DHT22;59686;51.716;7.016;2022-12-10T08:23:41;6.00;76.00
71837;DHT22;59686;51.716;7.016;2022-12-10T08:26:13;6.00;76.10
71837;DHT22;59686;51.716;7.016;2022-12-10T08:28:39;6.00;76.00
71837;DHT22;59686;51.716;7.016;2022-12-10T08:31:07;6.00;76.10
71837;DHT22;59686;51.716;7.016;2022-12-10T08:33:33;6.00;76.10
71837;DHT22;59686;51.716;7.016;2022-12-10T08:36:00;6.00;76.10
71837;DHT22;59686;51.716;7.016;2022-12-10T08:38:27;6.00;76.00
71837;DHT22;59686;51.716;7.016;2022-12-10T08:40:53;5.90;73.70
71837;DHT22;59686;51.716;7.016;2022-12-10T08:43:19;5.70;73.10
71837;DHT22;59686;51.716;7.016;2022-12-10T08:45:44;5.50;73.30
71837;DHT22;59686;51.716;7.016;2022-12-10T08:48:10;5.30;74.70
71837;DHT22;59686;51.716;7.016;2022-12-10T08:50:37;5.10;74.20
71837;DHT22;59686;51.716;7.016;2022-12-10T08:53:03;5.00;74.30
71837;DHT22;59686;51.716;7.016;2022-12-10T08:55:29;5.00;75.40
71837;DHT22;59686;51.716;7.016;2022-12-10T08:58:04;5.00;75.90
71837;DHT22;59686;51.716;7.016;2022-12-10T09:00:32;5.10;75.50
71837;DHT22;59686;51.716;7.016;2022-12-10T09:03:09;5.20;75.40
71837;DHT22;59686;51.716;7.016;2022-12-10T09:05:35;5.30;75.30
71837;DHT22;59686;51.716;7.016;2022-12-10T09:08:03;5.40;75.30
71837;DHT22;59686;51.716;7.016;2022-12-10T09:10:29;5.40;75.30
71837;DHT22;59686;51.716;7.016;2022-12-10T09:13:05;5.50;75.40
71837;DHT22;59686;51.716;7.016;2022-12-10T09:15:31;5.50;75.40
71837;DHT22;59686;51.716;7.016;2022-12-10T09:17:57;5.60;75.60
71837;DHT22;59686;51.716;7.016;2022-12-10T09:20:23;5.60;76.20
71837;DHT22;59686;51.716;7.016;2022-12-10T09:22:49;5.60;75.40
71837;DHT22;59686;51.716;7.016;2022-12-10T09:25:15;5.60;75.50
71837;DHT22;59686;51.716;7.016;2022-12-10T09:27:43;5.60;75.70
71837;DHT22;59686;51.716;7.016;2022-12-10T09:30:11;5.60;75.50
71837;DHT22;59686;51.716;7.016;2022-12-10T09:32:37;5.60;75.50
71837;DHT22;59686;51.716;7.016;2022-12-10T09:35:03;5.80;75.70
71837;DHT22;59686;51.716;7.016;2022-12-10T09:37:29;5.70;75.60
71837;DHT22;59686;51.716;7.016;2022-12-10T09:39:55;5.60;75.50
71837;DHT22;59686;51.716;7.016;2022-12-10T09:42:42;5.70;75.70
71837;DHT22;59686;51.716;7.016;2022-12-10T09:45:19;5.70;75.70
71837;DHT22;59686;51.716;7.016;2022-12-10T09:50:47;5.70;75.80
71837;DHT22;59686;51.716;7.016;2022-12-10T09:53:17;5.70;75.80
71837;DHT22;59686;51.716;7.016;2022-12-10T09:55:47;5.80;75.80
71837;DHT22;59686;51.716;7.016;2022-12-10T09:58:19;5.60;75.80
71837;DHT22;59686;51.716;7.016;2022-12-10T10:01:02;5.70;76.00
71837;DHT22;59686;51.716;7.016;2022-12-10T10:03:32;5.70;75.80
71837;DHT22;59686;51.716;7.016;2022-12-10T10:06:02;5.70;75.80
71837;DHT22;59686;51.716;7.016;2022-12-10T10:08:35;5.70;75.80
71837;DHT22;59686;51.716;7.016;2022-12-10T10:11:02;5.70;75.90
71837;DHT22;59686;51.716;7.016;2022-12-10T10:13:45;5.70;75.90
71837;DHT22;59686;51.716;7.016;2022-12-10T10:18:45;5.70;76.10
71837;DHT22;59686;51.716;7.016;2022-12-10T10:21:45;5.70;76.10
71837;DHT22;59686;51.716;7.016;2022-12-10T10:27:15;5.70;75.90
71837;DHT22;59686;51.716;7.016;2022-12-10T10:29:46;5.80;76.10
71837;DHT22;59686;51.716;7.016;2022-12-10T10:34:40;5.70;75.90
71837;DHT22;59686;51.716;7.016;2022-12-10T10:39:56;5.70;76.10
71837;DHT22;59686;51.716;7.016;2022-12-10T10:42:36;5.80;76.20
71837;DHT22;59686;51.716;7.016;2022-12-10T10:45:05;5.70;76.10
71837;DHT22;59686;51.716;7.016;2022-12-10T10:47:33;5.50;74.10
71837;DHT22;59686;51.716;7.016;2022-12-10T10:50:01;5.40;75.50
71837;DHT22;59686;51.716;7.016;2022-12-10T10:52:30;5.40;75.80
71837;DHT22;59686;51.716;7.016;2022-12-10T10:54:58;5.50;76.00
71837;DHT22;59686;51.716;7.016;2022-12-10T10:59:59;5.60;75.80
71837;DHT22;59686;51.716;7.016;2022-12-10T11:05:06;5.60;75.70
71837;DHT22;59686;51.716;7.016;2022-12-10T11:07:36;5.80;75.90
71837;DHT22;59686;51.716;7.016;2022-12-10T11:10:22;5.70;75.70
71837;DHT22;59686;51.716;7.016;2022-12-10T11:13:03;5.70;75.70
71837;DHT22;59686;51.716;7.016;2022-12-10T11:15:38;5.70;75.70
71837;DHT22;59686;51.716;7.016;2022-12-10T11:23:44;5.70;75.80
71837;DHT22;59686;51.716;7.016;2022-12-10T11:38:34;5.70;75.80
71837;DHT22;59686;51.716;7.016;2022-12-10T11:47:20;5.70;75.80
71837;DHT22;59686;51.716;7.016;2022-12-10T12:04:27;5.60;76.00
71837;DHT22;59686;51.716;7.016;2022-12-10T12:07:17;5.60;76.10
71837;DHT22;59686;51.716;7.016;2022-12-10T12:09:56;5.60;76.20
71837;DHT22;59686;51.716;7.016;2022-12-10T12:15:21;5.70;76.10
71837;DHT22;59686;51.716;7.016;2022-12-10T12:17:58;5.70;76.10
71837;DHT22;59686;51.716;7.016;2022-12-10T12:22:58;5.70;76.20
71837;DHT22;59686;51.716;7.016;2022-12-10T12:25:59;5.80;76.30
71837;DHT22;59686;51.716;7.016;2022-12-10T12:28:27;5.70;76.10
71837;DHT22;59686;51.716;7.016;2022-12-10T12:31:05;5.70;76.10
71837;DHT22;59686;51.716;7.016;2022-12-10T12:33:51;5.70;76.20
71837;DHT22;59686;51.716;7.016;2022-12-10T12:36:25;5.80;76.30
71837;DHT22;59686;51.716;7.016;2022-12-10T12:42:29;5.70;76.30
71837;DHT22;59686;51.716;7.016;2022-12-10T12:45:20;5.70;76.20
71837;DHT22;59686;51.716;7.016;2022-12-10T12:50:51;5.70;76.30
71837;DHT22;59686;51.716;7.016;2022-12-10T12:53:21;5.70;76.30
71837;DHT22;59686;51.716;7.016;2022-12-10T13:01:41;5.70;76.30
71837;DHT22;59686;51.716;7.016;2022-12-10T13:04:09;5.70;76.40
71837;DHT22;59686;51.716;7.016;2022-12-10T13:06:38;5.70;76.40
71837;DHT22;59686;51.716;7.016;2022-12-10T13:12:16;5.70;76.40
71837;DHT22;59686;51.716;7.016;2022-12-10T13:14:53;5.70;76.40
71837;DHT22;59686;51.716;7.016;2022-12-10T13:23:01;5.70;76.30
71837;DHT22;59686;51.716;7.016;2022-12-10T13:25:54;5.70;76.40
71837;DHT22;59686;51.716;7.016;2022-12-10T13:34:04;5.70;76.40
71837;DHT22;59686;51.716;7.016;2022-12-10T13:41:31;5.70;76.50
71837;DHT22;59686;51.716;7.016;2022-12-10T13:50:20;5.70;76.50
71837;DHT22;59686;51.716;7.016;2022-12-10T13:55:49;5.70;76.50
71837;DHT22;59686;51.716;7.016;2022-12-10T14:01:45;5.70;76.50
71837;DHT22;59686;51.716;7.016;2022-12-10T14:07:23;5.70;76.50
71837;DHT22;59686;51.716;7.016;2022-12-10T14:09:53;5.80;76.60
71837;DHT22;59686;51.716;7.016;2022-12-10T14:12:39;5.80;76.60
71837;DHT22;59686;51.716;7.016;2022-12-10T14:15:08;5.70;76.50
71837;DHT22;59686;51.716;7.016;2022-12-10T14:17:42;5.70;76.50
71837;DHT22;59686;51.716;7.016;2022-12-10T14:20:15;5.90;76.60
71837;DHT22;59686;51.716;7.016;2022-12-10T14:22:53;5.70;76.50
71837;DHT22;59686;51.716;7.016;2022-12-10T14:25:21;5.80;76.60
71837;DHT22;59686;51.716;7.016;2022-12-10T14:27:52;5.70;76.60
71837;DHT22;59686;51.716;7.016;2022-12-10T14:30:20;5.70;76.60
71837;DHT22;59686;51.716;7.016;2022-12-10T14:32:47;5.70;76.60
71837;DHT22;59686;51.716;7.016;2022-12-10T14:35:15;5.70;76.50
71837;DHT22;59686;51.716;7.016;2022-12-10T14:37:47;5.70;76.60
71837;DHT22;59686;51.716;7.016;2022-12-10T14:40:37;5.70;76.60
71837;DHT22;59686;51.716;7.016;2022-12-10T14:43:06;5.70;76.60
71837;DHT22;59686;51.716;7.016;2022-12-10T14:45:55;5.70;76.60
71837;DHT22;59686;51.716;7.016;2022-12-10T14:48:21;5.70;76.70
71837;DHT22;59686;51.716;7.016;2022-12-10T14:50:47;5.70;76.70
71837;DHT22;59686;51.716;7.016;2022-12-10T14:53:19;5.70;76.60
71837;DHT22;59686;51.716;7.016;2022-12-10T14:56:14;5.70;76.60
71837;DHT22;59686;51.716;7.016;2022-12-10T14:58:50;5.70;76.60
71837;DHT22;59686;51.716;7.016;2022-12-10T15:01:39;5.70;76.60
71837;DHT22;59686;51.716;7.016;2022-12-10T15:04:16;5.70;77.40
71837;DHT22;59686;51.716;7.016;2022-12-10T15:06:43;5.70;76.70
71837;DHT22;59686;51.716;7.016;2022-12-10T15:09:20;5.70;76.80
71837;DHT22;59686;51.716;7.016;2022-12-10T15:11:55;5.70;76.70
71837;DHT22;59686;51.716;7.016;2022-12-10T15:14:29;5.70;76.70
71837;DHT22;59686;51.716;7.016;2022-12-10T15:16:56;5.70;76.70
71837;DHT22;59686;51.716;7.016;2022-12-10T15:19:31;5.70;76.70
71837;DHT22;59686;51.716;7.016;2022-12-10T15:22:17;5.80;76.70
71837;DHT22;59686;51.716;7.016;2022-12-10T15:24:43;5.70;76.70
71837;DHT22;59686;51.716;7.016;2022-12-10T15:27:24;5.70;76.70
71837;DHT22;59686;51.716;7.016;2022-12-10T15:29:50;5.70;76.80
71837;DHT22;59686;51.716;7.016;2022-12-10T15:32:28;5.70;76.80
71837;DHT22;59686;51.716;7.016;2022-12-10T15:35:03;5.70;76.80
71837;DHT22;59686;51.716;7.016;2022-12-10T15:37:33;5.70;76.90
71837;DHT22;59686;51.716;7.016;2022-12-10T15:40:02;5.70;76.90
71837;DHT22;59686;51.716;7.016;2022-12-10T15:42:42;5.70;76.70
71837;DHT22;59686;51.716;7.016;2022-12-10T15:47:41;5.70;76.70
71837;DHT22;59686;51.716;7.016;2022-12-10T15:50:08;5.70;76.80
71837;DHT22;59686;51.716;7.016;2022-12-10T15:52:34;5.70;76.80
71837;DHT22;59686;51.716;7.016;2022-12-10T15:55:00;5.70;76.80
71837;DHT22;59686;51.716;7.016;2022-12-10T15:57:36;5.70;76.70
71837;DHT22;59686;51.716;7.016;2022-12-10T16:00:07;5.70;76.70
71837;DHT22;59686;51.716;7.016;2022-12-10T16:02:53;5.70;76.70
71837;DHT22;59686;51.716;7.016;2022-12-10T16:05:22;5.70;76.70
71837;DHT22;59686;51.716;7.016;2022-12-10T16:07:50;5.70;76.80
71837;DHT22;59686;51.716;7.016;2022-12-10T16:10:18;5.70;76.70
71837;DHT22;59686;51.716;7.016;2022-12-10T16:13:03;5.70;76.80
71837;DHT22;59686;51.716;7.016;2022-12-10T16:15:44;5.70;76.80
71837;DHT22;59686;51.716;7.016;2022-12-10T16:18:17;5.70;76.80
71837;DHT22;59686;51.716;7.016;2022-12-10T16:20:43;5.70;76.80
71837;DHT22;59686;51.716;7.016;2022-12-10T16:23:09;5.70;76.90
71837;DHT22;59686;51.716;7.016;2022-12-10T16:25:37;5.70;76.80
71837;DHT22;59686;51.716;7.016;2022-12-10T16:28:03;5.70;76.80
71837;DHT22;59686;51.716;7.016;2022-12-10T16:33:12;5.70;76.90
71837;DHT22;59686;51.716;7.016;2022-12-10T16:35:38;5.70;76.70
71837;DHT22;59686;51.716;7.016;2022-12-10T16:38:04;5.70;76.80
71837;DHT22;59686;51.716;7.016;2022-12-10T16:40:30;5.70;76.90
71837;DHT22;59686;51.716;7.016;2022-12-10T16:42:56;5.70;77.50
71837;DHT22;59686;51.716;7.016;2022-12-10T16:45:42;5.60;76.90
71837;DHT22;59686;51.716;7.016;2022-12-10T16:48:08;5.70;76.90
71837;DHT22;59686;51.716;7.016;2022-12-10T16:50:34;5.70;76.80
71837;DHT22;59686;51.716;7.016;2022-12-10T16:53:06;5.70;76.90
71837;DHT22;59686;51.716;7.016;2022-12-10T16:55:37;5.70;76.90
71837;DHT22;59686;51.716;7.016;2022-12-10T16:58:02;5.70;76.90
71837;DHT22;59686;51.716;7.016;2022-12-10T17:00:37;5.70;76.90
71837;DHT22;59686;51.716;7.016;2022-12-10T17:03:03;5.70;76.80
71837;DHT22;59686;51.716;7.016;2022-12-10T17:05:42;5.80;76.90
71837;DHT22;59686;51.716;7.016;2022-12-10T17:08:09;5.70;76.90
71837;DHT22;59686;51.716;7.016;2022-12-10T17:10:35;5.70;77.00
71837;DHT22;59686;51.716;7.016;2022-12-10T17:13:22;5.70;76.90
71837;DHT22;59686;51.716;7.016;2022-12-10T17:15:48;5.70;76.80
71837;DHT22;59686;51.716;7.016;2022-12-10T17:18:16;5.70;76.90
71837;DHT22;59686;51.716;7.016;2022-12-10T17:20:43;5.70;76.90
71837;DHT22;59686;51.716;7.016;2022-12-10T17:23:15;5.70;77.00
71837;DHT22;59686;51.716;7.016;2022-12-10T17:25:41;5.70;77.00
71837;DHT22;59686;51.716;7.016;2022-12-10T17:28:19;5.70;77.00
71837;DHT22;59686;51.716;7.016;2022-12-10T17:30:46;5.70;77.00
71837;DHT22;59686;51.716;7.016;2022-12-10T17:33:19;5.70;77.00
71837;DHT22;59686;51.716;7.016;2022-12-10T17:35:46;5.70;77.00
71837;DHT22;59686;51.716;7.016;2022-12-10T17:38:23;5.70;77.10
71837;DHT22;59686;51.716;7.016;2022-12-10T17:40:50;5.70;77.00
71837;DHT22;59686;51.716;7.016;2022-12-10T17:43:16;5.70;77.10
71837;DHT22;59686;51.716;7.016;2022-12-10T17:45:42;5.70;77.00
71837;DHT22;59686;51.716;7.016;2022-12-10T17:48:13;5.70;77.80
71837;DHT22;59686;51.716;7.016;2022-12-10T17:50:40;5.80;77.10
71837;DHT22;59686;51.716;7.016;2022-12-10T17:53:07;5.70;77.00
71837;DHT22;59686;51.716;7.016;2022-12-10T17:55:35;5.70;77.00
71837;DHT22;59686;51.716;7.016;2022-12-10T17:58:05;5.80;77.10
71837;DHT22;59686;51.716;7.016;2022-12-10T18:00:34;5.70;77.00
71837;DHT22;59686;51.716;7.016;2022-12-10T18:03:01;5.70;77.00
71837;DHT22;59686;51.716;7.016;2022-12-10T18:05:27;5.70;77.00
71837;DHT22;59686;51.716;7.016;2022-12-10T18:07:53;5.70;77.00
71837;DHT22;59686;51.716;7.016;2022-12-10T18:10:26;5.70;77.00
71837;DHT22;59686;51.716;7.016;2022-12-10T18:12:52;5.70;77.00
71837;DHT22;59686;51.716;7.016;2022-12-10T18:15:19;5.70;77.10
71837;DHT22;59686;51.716;7.016;2022-12-10T18:17:46;5.70;77.10